sensor_id;sensor_type;location;lat;lon;timestamp;P1;durP1;ratioP1;P2;durP2;ratioP2
52982;SDS011;48698;45.736;13.926;2023-06-22T00:03:52;14.40;;;12.88;;
52982;SDS011;48698;45.736;13.926;2023-06-22T00:08:55;13.73;;;12.40;;
52982;SDS011;48698;45.736;13.926;2023-06-22T00:14:06;15.18;;;12.88;;
52982;SDS011;48698;45.736;13.926;2023-06-22T00:19:09;14.73;;;13.23;;
52982;SDS011;48698;45.736;13.926;2023-06-22T00:24:13;17.88;;;15.25;;
52982;SDS011;48698;45.736;13.926;2023-06-22T00:29:26;18.08;;;13.77;;
52982;SDS011;48698;45.736;13.926;2023-06-22T00:34:29;15.57;;;13.95;;
52982;SDS011;48698;45.736;13.926;2023-06-22T00:39:32;16.27;;;14.65;;
52982;SDS011;48698;45.736;13.926;2023-06-22T00:44:36;21.17;;;14.67;;
52982;SDS011;48698;45.736;13.926;2023-06-22T00:49:39;16.38;;;13.73;;
52982;SDS011;48698;45.736;13.926;2023-06-22T00:54:41;16.15;;;14.50;;
52982;SDS011;48698;45.736;13.926;2023-06-22T00:59:48;18.42;;;15.75;;
52982;SDS011;48698;45.736;13.926;2023-06-22T01:05:00;16.02;;;14.43;;
52982;SDS011;48698;45.736;13.926;2023-06-22T01:15:28;15.93;;;14.32;;
52982;SDS011;48698;45.736;13.926;2023-06-22T01:20:38;16.85;;;15.13;;
52982;SDS011;48698;45.736;13.926;2023-06-22T01:25:51;15.98;;;14.38;;
52982;SDS011;48698;45.736;13.926;2023-06-22T01:31:01;15.35;;;13.88;;
52982;SDS011;48698;45.736;13.926;2023-06-22T01:36:08;15.38;;;13.55;;
52982;SDS011;48698;45.736;13.926;2023-06-22T01:41:12;16.67;;;15.05;;
52982;SDS011;48698;45.736;13.926;2023-06-22T01:46:15;18.37;;;16.57;;
52982;SDS011;48698;45.736;13.926;2023-06-22T01:51:21;17.23;;;13.40;;
52982;SDS011;48698;45.736;13.926;2023-06-22T01:56:24;19.73;;;15.13;;
52982;SDS011;48698;45.736;13.926;2023-06-22T02:01:32;16.45;;;14.80;;
52982;SDS011;48698;45.736;13.926;2023-06-22T02:06:44;19.17;;;15.55;;
52982;SDS011;48698;45.736;13.926;2023-06-22T02:11:48;19.05;;;16.25;;
52982;SDS011;48698;45.736;13.926;2023-06-22T02:16:57;17.27;;;15.68;;
52982;SDS011;48698;45.736;13.926;2023-06-22T02:22:01;16.95;;;15.25;;
52982;SDS011;48698;45.736;13.926;2023-06-22T02:27:04;17.15;;;15.45;;
52982;SDS011;48698;45.736;13.926;2023-06-22T02:32:09;19.55;;;15.73;;
52982;SDS011;48698;45.736;13.926;2023-06-22T02:37:12;17.50;;;15.82;;
52982;SDS011;48698;45.736;13.926;2023-06-22T02:42:17;18.98;;;16.52;;
52982;SDS011;48698;45.736;13.926;2023-06-22T02:47:22;18.98;;;16.98;;
52982;SDS011;48698;45.736;13.926;2023-06-22T02:52:35;19.35;;;16.88;;
52982;SDS011;48698;45.736;13.926;2023-06-22T02:57:38;19.33;;;17.15;;
52982;SDS011;48698;45.736;13.926;2023-06-22T03:02:46;17.77;;;15.98;;
52982;SDS011;48698;45.736;13.926;2023-06-22T03:07:50;19.05;;;17.02;;
52982;SDS011;48698;45.736;13.926;2023-06-22T03:12:54;18.48;;;16.63;;
52982;SDS011;48698;45.736;13.926;2023-06-22T03:18:07;18.83;;;17.03;;
52982;SDS011;48698;45.736;13.926;2023-06-22T03:23:09;18.85;;;16.85;;
52982;SDS011;48698;45.736;13.926;2023-06-22T03:28:12;18.83;;;16.95;;
52982;SDS011;48698;45.736;13.926;2023-06-22T03:33:15;18.63;;;16.73;;
52982;SDS011;48698;45.736;13.926;2023-06-22T03:38:17;18.92;;;16.63;;
52982;SDS011;48698;45.736;13.926;2023-06-22T03:43:20;20.60;;;18.63;;
52982;SDS011;48698;45.736;13.926;2023-06-22T03:48:23;20.33;;;18.17;;
52982;SDS011;48698;45.736;13.926;2023-06-22T03:53:26;19.88;;;17.92;;
52982;SDS011;48698;45.736;13.926;2023-06-22T03:58:29;19.35;;;17.40;;
52982;SDS011;48698;45.736;13.926;2023-06-22T04:03:45;19.17;;;17.27;;
52982;SDS011;48698;45.736;13.926;2023-06-22T04:08:50;18.20;;;16.52;;
52982;SDS011;48698;45.736;13.926;2023-06-22T04:13:53;19.63;;;17.42;;
52982;SDS011;48698;45.736;13.926;2023-06-22T04:18:56;18.70;;;17.00;;
52982;SDS011;48698;45.736;13.926;2023-06-22T04:23:59;19.02;;;17.05;;
52982;SDS011;48698;45.736;13.926;2023-06-22T04:29:01;18.63;;;16.58;;
52982;SDS011;48698;45.736;13.926;2023-06-22T04:34:07;18.30;;;16.42;;
52982;SDS011;48698;45.736;13.926;2023-06-22T04:39:20;17.40;;;15.73;;
52982;SDS011;48698;45.736;13.926;2023-06-22T04:44:28;18.00;;;16.20;;
52982;SDS011;48698;45.736;13.926;2023-06-22T04:49:31;18.05;;;16.23;;
52982;SDS011;48698;45.736;13.926;2023-06-22T04:54:38;20.70;;;15.95;;
52982;SDS011;48698;45.736;13.926;2023-06-22T04:59:42;18.17;;;16.25;;
52982;SDS011;48698;45.736;13.926;2023-06-22T05:04:46;19.57;;;16.07;;
52982;SDS011;48698;45.736;13.926;2023-06-22T05:10:03;16.70;;;14.88;;
52982;SDS011;48698;45.736;13.926;2023-06-22T05:15:07;17.75;;;15.65;;
52982;SDS011;48698;45.736;13.926;2023-06-22T05:20:12;17.08;;;15.25;;
52982;SDS011;48698;45.736;13.926;2023-06-22T05:25:15;20.67;;;16.13;;
52982;SDS011;48698;45.736;13.926;2023-06-22T05:30:19;20.63;;;15.13;;
52982;SDS011;48698;45.736;13.926;2023-06-22T05:40:25;15.25;;;13.70;;
52982;SDS011;48698;45.736;13.926;2023-06-22T05:45:30;16.77;;;13.18;;
52982;SDS011;48698;45.736;13.926;2023-06-22T05:50:32;18.08;;;13.82;;
52982;SDS011;48698;45.736;13.926;2023-06-22T05:55:43;15.95;;;12.90;;
52982;SDS011;48698;45.736;13.926;2023-06-22T06:00:45;16.25;;;13.45;;
52982;SDS011;48698;45.736;13.926;2023-06-22T06:05:58;15.70;;;13.40;;
52982;SDS011;48698;45.736;13.926;2023-06-22T06:11:01;15.03;;;13.47;;
52982;SDS011;48698;45.736;13.926;2023-06-22T06:16:04;16.03;;;13.70;;
52982;SDS011;48698;45.736;13.926;2023-06-22T06:21:07;14.90;;;12.60;;
52982;SDS011;48698;45.736;13.926;2023-06-22T06:26:10;13.83;;;12.37;;
52982;SDS011;48698;45.736;13.926;2023-06-22T06:31:12;12.90;;;11.60;;
52982;SDS011;48698;45.736;13.926;2023-06-22T06:36:19;14.02;;;11.90;;
52982;SDS011;48698;45.736;13.926;2023-06-22T06:41:22;14.30;;;11.23;;
52982;SDS011;48698;45.736;13.926;2023-06-22T06:46:25;15.65;;;12.32;;
52982;SDS011;48698;45.736;13.926;2023-06-22T06:51:28;14.47;;;11.83;;
52982;SDS011;48698;45.736;13.926;2023-06-22T06:56:31;12.55;;;10.88;;
52982;SDS011;48698;45.736;13.926;2023-06-22T07:01:37;14.40;;;10.63;;
52982;SDS011;48698;45.736;13.926;2023-06-22T07:06:40;13.77;;;9.80;;
52982;SDS011;48698;45.736;13.926;2023-06-22T07:11:54;15.80;;;9.95;;
52982;SDS011;48698;45.736;13.926;2023-06-22T07:16:57;14.23;;;9.90;;
52982;SDS011;48698;45.736;13.926;2023-06-22T07:22:00;14.30;;;9.98;;
52982;SDS011;48698;45.736;13.926;2023-06-22T07:27:04;14.02;;;9.82;;
52982;SDS011;48698;45.736;13.926;2023-06-22T07:32:09;17.13;;;11.32;;
52982;SDS011;48698;45.736;13.926;2023-06-22T07:37:21;17.33;;;10.80;;
52982;SDS011;48698;45.736;13.926;2023-06-22T07:42:25;11.80;;;10.60;;
52982;SDS011;48698;45.736;13.926;2023-06-22T07:47:28;17.17;;;10.15;;
52982;SDS011;48698;45.736;13.926;2023-06-22T07:52:41;13.20;;;10.20;;
52982;SDS011;48698;45.736;13.926;2023-06-22T07:57:44;18.52;;;11.20;;
52982;SDS011;48698;45.736;13.926;2023-06-22T08:02:50;17.27;;;11.13;;
52982;SDS011;48698;45.736;13.926;2023-06-22T08:12:52;17.13;;;11.82;;
52982;SDS011;48698;45.736;13.926;2023-06-22T08:17:56;21.48;;;11.45;;
52982;SDS011;48698;45.736;13.926;2023-06-22T08:42:10;16.13;;;9.90;;
52982;SDS011;48698;45.736;13.926;2023-06-22T09:11:18;17.13;;;10.45;;
52982;SDS011;48698;45.736;13.926;2023-06-22T09:21:07;17.38;;;9.98;;
52982;SDS011;48698;45.736;13.926;2023-06-22T09:45:54;16.75;;;9.07;;
52982;SDS011;48698;45.736;13.926;2023-06-22T10:53:33;19.23;;;9.10;;
52982;SDS011;48698;45.736;13.926;2023-06-22T11:04:48;18.85;;;8.40;;
52982;SDS011;48698;45.736;13.926;2023-06-22T11:09:52;31.60;;;9.73;;
52982;SDS011;48698;45.736;13.926;2023-06-22T11:19:57;12.27;;;8.82;;
52982;SDS011;48698;45.736;13.926;2023-06-22T11:25:02;306.77;;;22.05;;
52982;SDS011;48698;45.736;13.926;2023-06-22T11:35:02;72.68;;;18.52;;
52982;SDS011;48698;45.736;13.926;2023-06-22T11:40:16;19.80;;;10.70;;
52982;SDS011;48698;45.736;13.926;2023-06-22T11:45:20;17.42;;;11.25;;
52982;SDS011;48698;45.736;13.926;2023-06-22T11:50:24;12.90;;;10.93;;
52982;SDS011;48698;45.736;13.926;2023-06-22T11:55:29;17.67;;;10.45;;
52982;SDS011;48698;45.736;13.926;2023-06-22T12:00:32;44.42;;;10.73;;
52982;SDS011;48698;45.736;13.926;2023-06-22T12:05:51;16.63;;;10.07;;
52982;SDS011;48698;45.736;13.926;2023-06-22T12:11:07;16.15;;;10.57;;
52982;SDS011;48698;45.736;13.926;2023-06-22T12:16:31;17.92;;;10.40;;
52982;SDS011;48698;45.736;13.926;2023-06-22T12:21:34;19.05;;;10.52;;
52982;SDS011;48698;45.736;13.926;2023-06-22T12:26:36;22.30;;;10.30;;
52982;SDS011;48698;45.736;13.926;2023-06-22T12:36:42;18.02;;;11.23;;
52982;SDS011;48698;45.736;13.926;2023-06-22T12:41:45;15.75;;;10.40;;
52982;SDS011;48698;45.736;13.926;2023-06-22T12:46:48;34.22;;;11.23;;
52982;SDS011;48698;45.736;13.926;2023-06-22T12:51:51;20.60;;;8.20;;
52982;SDS011;48698;45.736;13.926;2023-06-22T12:56:54;19.20;;;7.72;;
52982;SDS011;48698;45.736;13.926;2023-06-22T13:02:07;20.60;;;7.88;;
52982;SDS011;48698;45.736;13.926;2023-06-22T13:07:10;13.20;;;7.10;;
52982;SDS011;48698;45.736;13.926;2023-06-22T13:12:16;14.35;;;6.32;;
52982;SDS011;48698;45.736;13.926;2023-06-22T13:17:25;26.55;;;6.82;;
52982;SDS011;48698;45.736;13.926;2023-06-22T13:22:30;13.73;;;6.95;;
52982;SDS011;48698;45.736;13.926;2023-06-22T13:27:54;18.20;;;6.30;;
52982;SDS011;48698;45.736;13.926;2023-06-22T13:39:55;15.52;;;6.65;;
52982;SDS011;48698;45.736;13.926;2023-06-22T13:44:58;12.75;;;6.45;;
52982;SDS011;48698;45.736;13.926;2023-06-22T13:50:01;12.52;;;6.20;;
52982;SDS011;48698;45.736;13.926;2023-06-22T13:55:05;15.90;;;6.00;;
52982;SDS011;48698;45.736;13.926;2023-06-22T14:00:09;12.10;;;6.03;;
52982;SDS011;48698;45.736;13.926;2023-06-22T14:05:12;14.63;;;6.40;;
52982;SDS011;48698;45.736;13.926;2023-06-22T14:10:15;12.55;;;5.88;;
52982;SDS011;48698;45.736;13.926;2023-06-22T14:20:41;12.27;;;6.60;;
52982;SDS011;48698;45.736;13.926;2023-06-22T14:25:45;15.40;;;7.05;;
52982;SDS011;48698;45.736;13.926;2023-06-22T14:47:22;18.65;;;6.65;;
52982;SDS011;48698;45.736;13.926;2023-06-22T14:52:26;9.70;;;5.35;;
52982;SDS011;48698;45.736;13.926;2023-06-22T14:57:30;11.88;;;6.20;;
52982;SDS011;48698;45.736;13.926;2023-06-22T15:02:34;17.67;;;6.22;;
52982;SDS011;48698;45.736;13.926;2023-06-22T15:07:39;20.45;;;6.63;;
52982;SDS011;48698;45.736;13.926;2023-06-22T15:12:45;11.20;;;5.90;;
52982;SDS011;48698;45.736;13.926;2023-06-22T15:17:48;13.30;;;5.88;;
52982;SDS011;48698;45.736;13.926;2023-06-22T15:22:52;11.18;;;5.82;;
52982;SDS011;48698;45.736;13.926;2023-06-22T15:32:44;11.65;;;5.53;;
52982;SDS011;48698;45.736;13.926;2023-06-22T15:37:50;14.77;;;5.90;;
52982;SDS011;48698;45.736;13.926;2023-06-22T15:52:50;14.55;;;5.93;;
52982;SDS011;48698;45.736;13.926;2023-06-22T15:57:54;12.43;;;5.88;;
52982;SDS011;48698;45.736;13.926;2023-06-22T16:02:58;19.35;;;5.80;;
52982;SDS011;48698;45.736;13.926;2023-06-22T16:31:26;13.13;;;5.60;;
52982;SDS011;48698;45.736;13.926;2023-06-22T16:41:32;11.20;;;5.78;;
52982;SDS011;48698;45.736;13.926;2023-06-22T16:46:35;12.23;;;6.45;;
52982;SDS011;48698;45.736;13.926;2023-06-22T16:51:39;14.55;;;6.32;;
52982;SDS011;48698;45.736;13.926;2023-06-22T17:17:45;13.00;;;6.75;;
52982;SDS011;48698;45.736;13.926;2023-06-22T17:22:50;13.48;;;7.15;;
52982;SDS011;48698;45.736;13.926;2023-06-22T17:37:31;16.07;;;6.80;;
52982;SDS011;48698;45.736;13.926;2023-06-22T17:42:35;13.10;;;7.22;;
52982;SDS011;48698;45.736;13.926;2023-06-22T18:14:48;642.30;;;591.28;;
52982;SDS011;48698;45.736;13.926;2023-06-22T18:19:52;6.38;;;3.58;;
52982;SDS011;48698;45.736;13.926;2023-06-22T18:24:58;7.45;;;4.68;;
52982;SDS011;48698;45.736;13.926;2023-06-22T18:30:04;8.48;;;6.20;;
52982;SDS011;48698;45.736;13.926;2023-06-22T18:35:08;8.73;;;5.43;;
52982;SDS011;48698;45.736;13.926;2023-06-22T18:40:13;7.03;;;5.05;;
52982;SDS011;48698;45.736;13.926;2023-06-22T18:45:25;8.60;;;5.65;;
52982;SDS011;48698;45.736;13.926;2023-06-22T18:50:35;8.35;;;5.63;;
52982;SDS011;48698;45.736;13.926;2023-06-22T18:55:51;13.35;;;6.13;;
52982;SDS011;48698;45.736;13.926;2023-06-22T19:01:16;8.75;;;5.90;;
52982;SDS011;48698;45.736;13.926;2023-06-22T19:12:24;458.77;;;433.80;;
52982;SDS011;48698;45.736;13.926;2023-06-22T19:17:42;359.08;;;337.95;;
52982;SDS011;48698;45.736;13.926;2023-06-22T19:22:47;342.83;;;322.08;;
52982;SDS011;48698;45.736;13.926;2023-06-22T19:27:57;473.30;;;444.25;;
52982;SDS011;48698;45.736;13.926;2023-06-22T19:33:11;932.65;;;856.25;;
52982;SDS011;48698;45.736;13.926;2023-06-22T19:38:16;1999.90;;;999.90;;
52982;SDS011;48698;45.736;13.926;2023-06-22T19:43:22;1999.90;;;999.90;;
52982;SDS011;48698;45.736;13.926;2023-06-22T19:48:30;671.10;;;619.95;;
52982;SDS011;48698;45.736;13.926;2023-06-22T19:53:34;849.10;;;784.42;;
52982;SDS011;48698;45.736;13.926;2023-06-22T19:58:44;809.50;;;748.17;;
52982;SDS011;48698;45.736;13.926;2023-06-22T20:03:47;1042.38;;;957.00;;
52982;SDS011;48698;45.736;13.926;2023-06-22T20:08:55;1999.90;;;999.90;;
52982;SDS011;48698;45.736;13.926;2023-06-22T20:14:01;153.25;;;141.05;;
52982;SDS011;48698;45.736;13.926;2023-06-22T20:19:14;178.57;;;119.18;;
52982;SDS011;48698;45.736;13.926;2023-06-22T20:24:18;1999.90;;;999.90;;
52982;SDS011;48698;45.736;13.926;2023-06-22T20:29:25;1999.90;;;999.90;;
52982;SDS011;48698;45.736;13.926;2023-06-22T20:34:34;16.88;;;10.93;;
52982;SDS011;48698;45.736;13.926;2023-06-22T20:39:38;16.55;;;11.50;;
52982;SDS011;48698;45.736;13.926;2023-06-22T20:44:42;14.13;;;10.38;;
52982;SDS011;48698;45.736;13.926;2023-06-22T20:50:03;16.50;;;11.13;;
52982;SDS011;48698;45.736;13.926;2023-06-22T20:55:07;15.70;;;11.00;;
52982;SDS011;48698;45.736;13.926;2023-06-22T21:00:11;14.80;;;11.15;;
52982;SDS011;48698;45.736;13.926;2023-06-22T21:05:15;14.43;;;11.20;;
52982;SDS011;48698;45.736;13.926;2023-06-22T21:10:19;13.90;;;10.85;;
52982;SDS011;48698;45.736;13.926;2023-06-22T21:15:23;17.95;;;12.30;;
52982;SDS011;48698;45.736;13.926;2023-06-22T21:20:27;17.38;;;12.68;;
52982;SDS011;48698;45.736;13.926;2023-06-22T21:25:30;19.65;;;12.43;;
52982;SDS011;48698;45.736;13.926;2023-06-22T21:30:44;14.18;;;12.65;;
52982;SDS011;48698;45.736;13.926;2023-06-22T21:35:48;12.57;;;11.27;;
52982;SDS011;48698;45.736;13.926;2023-06-22T21:40:51;15.27;;;11.68;;
52982;SDS011;48698;45.736;13.926;2023-06-22T21:46:04;13.13;;;11.75;;
52982;SDS011;48698;45.736;13.926;2023-06-22T21:51:08;14.88;;;11.73;;
52982;SDS011;48698;45.736;13.926;2023-06-22T21:56:12;16.15;;;14.55;;
52982;SDS011;48698;45.736;13.926;2023-06-22T22:01:15;16.67;;;14.40;;
52982;SDS011;48698;45.736;13.926;2023-06-22T22:06:25;16.40;;;14.00;;
52982;SDS011;48698;45.736;13.926;2023-06-22T22:11:40;13.93;;;12.40;;
52982;SDS011;48698;45.736;13.926;2023-06-22T22:16:44;18.50;;;13.82;;
52982;SDS011;48698;45.736;13.926;2023-06-22T22:21:48;16.55;;;14.60;;
52982;SDS011;48698;45.736;13.926;2023-06-22T22:26:52;22.73;;;16.05;;
52982;SDS011;48698;45.736;13.926;2023-06-22T22:31:55;17.65;;;15.18;;
52982;SDS011;48698;45.736;13.926;2023-06-22T22:37:08;18.67;;;15.45;;
52982;SDS011;48698;45.736;13.926;2023-06-22T22:42:12;17.90;;;14.93;;
52982;SDS011;48698;45.736;13.926;2023-06-22T22:47:18;20.90;;;15.77;;
52982;SDS011;48698;45.736;13.926;2023-06-22T22:52:21;17.10;;;15.50;;
52982;SDS011;48698;45.736;13.926;2023-06-22T22:57:25;19.33;;;16.38;;
52982;SDS011;48698;45.736;13.926;2023-06-22T23:02:32;20.23;;;15.25;;
52982;SDS011;48698;45.736;13.926;2023-06-22T23:07:36;18.38;;;14.68;;
52982;SDS011;48698;45.736;13.926;2023-06-22T23:12:41;15.80;;;14.13;;
52982;SDS011;48698;45.736;13.926;2023-06-22T23:17:50;16.00;;;14.30;;
52982;SDS011;48698;45.736;13.926;2023-06-22T23:22:55;20.63;;;15.30;;
52982;SDS011;48698;45.736;13.926;2023-06-22T23:28:01;20.20;;;14.50;;
52982;SDS011;48698;45.736;13.926;2023-06-22T23:33:05;19.25;;;15.45;;
52982;SDS011;48698;45.736;13.926;2023-06-22T23:38:18;19.05;;;15.68;;
52982;SDS011;48698;45.736;13.926;2023-06-22T23:43:22;19.02;;;15.30;;
52982;SDS011;48698;45.736;13.926;2023-06-22T23:48:25;19.77;;;15.17;;
52982;SDS011;48698;45.736;13.926;2023-06-22T23:53:28;17.73;;;15.80;;
52982;SDS011;48698;45.736;13.926;2023-06-22T23:58:32;19.00;;;14.88;;
